IZ3LCH-13 Weather Reports


time (UTC)temp
C
wind
direction
speed
KPH
gust
KPH
rain 1hr
cm
rain 24hr
cm
rain mn
cm
humidity
%
barometer
mb
20260507074003 17 204 6.4 12.9 0.00 0.00 0.00 83 1013.0
20260507073503 17 207 4.8 14.5 0.00 0.00 0.00 82 1012.8
20260507073003 17 212 4.8 14.5 0.00 0.00 0.00 83 1012.8
20260507072503 16 193 4.8 9.7 0.00 0.00 0.00 83 1012.6
20260507072003 16 178 3.2 9.7 0.00 0.00 0.00 85 1012.6
20260507071503 16 176 3.2 6.4 0.00 0.00 0.00 86 1012.6
20260507071003 16 169 3.2 6.4 0.00 0.00 0.00 86 1012.6
20260507070503 15 179 3.2 6.4 0.00 0.00 0.00 87 1012.3
20260507070006 15 192 4.8 6.4 0.00 0.00 0.00 87 1012.3
20260507065503 15 229 4.8 6.4 0.00 0.00 0.00 88 1012.3
20260507065003 15 218 3.2 6.4 0.00 0.00 0.00 88 1012.4
20260507064503 15 189 1.6 6.4 0.00 0.00 0.00 89 1012.5
20260507064003 15 212 1.6 6.4 0.00 0.00 0.00 89 1012.5
20260507063503 15 218 3.2 9.7 0.00 0.00 0.00 90 1012.3
20260507063003 14 68 1.6 9.7 0.00 0.00 0.00 91 1012.3
20260507062503 14 47 0.0 3.2 0.00 0.00 0.00 91 1012.1
20260507062003 14 47 0.0 3.2 0.00 0.00 0.00 91 1012.2
20260507061503 13 47 0.0 3.2 0.00 0.00 0.00 91 1012.2
20260507061003 13 47 0.0 3.2 0.00 0.00 0.00 91 1012.3
20260507060503 13 47 0.0 3.2 0.00 0.00 0.00 91 1012.5
20260507060003 13 47 0.0 3.2 0.00 0.00 0.00 91 1012.3
20260507055503 13 47 0.0 3.2 0.00 0.00 0.00 91 1012.2
20260507055003 13 47 0.0 3.2 0.00 0.00 0.00 91 1012.4
20260507054503 13 47 0.0 3.2 0.00 0.00 0.00 90 1012.2
20260507054003 13 47 0.0 3.2 0.00 0.00 0.00 90 1012.1
20260507053503 12 47 0.0 3.2 0.00 0.00 0.00 90 1012.0
20260507053004 12 47 0.0 3.2 0.00 0.00 0.00 90 1011.9
20260507052503 12 47 0.0 3.2 0.00 0.00 0.00 90 1011.8
20260507052003 12 47 0.0 3.2 0.00 0.00 0.00 90 1011.9
20260507051503 12 47 0.0 3.2 0.00 0.00 0.00 90 1011.8
20260507051003 12 47 0.0 3.2 0.00 0.00 0.00 90 1011.8
20260507050503 12 47 0.0 3.2 0.00 0.00 0.00 90 1011.7
20260507050003 12 47 0.0 3.2 0.00 0.00 0.00 90 1011.6
20260507045503 12 47 0.0 3.2 0.00 0.00 0.00 90 1011.7
20260507045003 12 47 0.0 3.2 0.00 0.00 0.00 90 1011.6
20260507044503 12 47 0.0 3.2 0.00 0.00 0.00 90 1011.5
20260507044003 12 47 0.0 3.2 0.00 0.00 0.00 90 1011.4
20260507043503 12 47 0.0 3.2 0.00 0.00 0.00 90 1011.4
20260507043003 12 47 0.0 3.2 0.00 0.00 0.00 90 1011.4
20260507042503 12 47 0.0 3.2 0.00 0.00 0.00 90 1011.4
20260507042003 12 47 0.0 3.2 0.00 0.00 0.00 90 1011.3
20260507041503 12 47 0.0 3.2 0.00 0.00 0.00 90 1011.3
20260507041003 12 47 0.0 3.2 0.00 0.00 0.00 90 1011.1
20260507040504 12 47 0.0 3.2 0.00 0.00 0.00 90 1011.1
20260507040003 12 47 0.0 3.2 0.00 0.00 0.00 90 1011.1
20260507035503 12 47 0.0 3.2 0.00 0.00 0.00 90 1011.1
20260507035003 11 47 0.0 3.2 0.00 0.00 0.00 90 1011.0
20260507034503 11 47 0.0 3.2 0.00 0.00 0.00 89 1011.1
20260507034003 11 47 0.0 3.2 0.00 0.00 0.00 89 1011.1
20260507033503 11 47 0.0 3.2 0.00 0.00 0.00 89 1010.9
20260507033003 12 47 0.0 3.2 0.00 0.00 0.00 89 1011.0
20260507032503 12 47 0.0 3.2 0.00 0.00 0.00 89 1010.9
20260507032003 12 47 0.0 3.2 0.00 0.03 0.00 89 1011.1
20260507031503 12 47 0.0 3.2 0.00 0.03 0.00 89 1011.0
20260507031003 12 47 0.0 3.2 0.00 0.03 0.00 89 1011.0
20260507030503 12 47 0.0 3.2 0.00 0.03 0.00 89 1010.8
20260507030003 12 47 0.0 3.2 0.00 0.03 0.00 89 1010.9
20260507025503 12 47 0.0 3.2 0.00 0.03 0.00 89 1011.0
20260507025003 11 47 0.0 3.2 0.00 0.03 0.00 89 1010.9
20260507024503 11 47 0.0 3.2 0.00 0.03 0.00 89 1010.8
20260507024003 11 47 0.0 3.2 0.00 0.03 0.00 89 1010.9
20260507023503 12 47 0.0 3.2 0.00 0.03 0.00 89 1010.9
20260507023003 12 47 0.0 3.2 0.00 0.03 0.00 89 1010.8
20260507022503 12 47 0.0 3.2 0.00 0.03 0.00 89 1010.9
20260507022003 12 47 0.0 3.2 0.00 0.03 0.00 89 1010.8
20260507021503 12 47 0.0 3.2 0.00 0.03 0.00 89 1010.8
20260507021003 12 47 0.0 3.2 0.00 0.03 0.00 89 1010.6
20260507020503 12 47 0.0 3.2 0.00 0.03 0.00 89 1010.7
20260507020003 12 47 0.0 3.2 0.00 0.03 0.00 89 1010.9
20260507015503 12 47 0.0 3.2 0.00 0.03 0.00 89 1010.6
20260507015003 12 47 0.0 3.2 0.00 0.03 0.00 89 1010.6
20260507014503 12 47 0.0 3.2 0.00 0.03 0.00 89 1010.5
20260507014003 12 47 0.0 3.2 0.00 0.03 0.00 89 1011.0
20260507013503 12 47 0.0 3.2 0.00 0.03 0.00 89 1011.0
20260507013003 12 47 0.0 3.2 0.00 0.03 0.00 89 1010.6
20260507012503 12 47 0.0 3.2 0.00 0.03 0.00 89 1010.5
20260507012003 12 47 0.0 3.2 0.00 0.03 0.00 89 1010.5
20260507011503 12 47 0.0 3.2 0.00 0.03 0.00 89 1010.5
20260507011003 13 47 0.0 3.2 0.00 0.03 0.00 89 1010.6
20260507010503 12 47 0.0 3.2 0.00 0.03 0.00 89 1010.6
20260507010003 12 47 0.0 3.2 0.00 0.03 0.00 89 1010.8
20260507005503 13 47 0.0 3.2 0.00 0.03 0.00 88 1010.4
20260507005003 13 47 0.0 3.2 0.00 0.03 0.00 88 1010.6
20260507004503 13 47 0.0 3.2 0.00 0.03 0.00 89 1010.7
20260507004003 13 47 0.0 3.2 0.00 0.03 0.00 89 1010.5
20260507003503 13 47 0.0 3.2 0.00 0.03 0.00 89 1010.8
20260507003003 13 47 0.0 3.2 0.00 0.03 0.00 88 1010.8
20260507002503 13 47 0.0 3.2 0.00 0.03 0.00 88 1010.6
20260507002003 13 47 0.0 3.2 0.00 0.03 0.00 88 1010.8
20260507001503 13 47 0.0 3.2 0.00 0.03 0.00 88 1010.5
20260507001003 13 47 0.0 3.2 0.00 0.03 0.00 88 1010.5
20260507000503 13 47 0.0 3.2 0.00 0.03 0.00 88 1010.7
20260507000003 13 47 0.0 3.2 0.00 0.03 0.00 88 1010.5
20260506235503 13 47 0.0 3.2 0.00 0.03 0.00 88 1010.7
20260506235003 13 47 0.0 3.2 0.00 0.03 0.00 88 1010.6
20260506234503 13 47 0.0 3.2 0.00 0.03 0.00 88 1010.3
20260506234003 13 47 0.0 3.2 0.00 0.03 0.00 88 1010.6
20260506233503 13 47 0.0 3.2 0.00 0.03 0.00 88 1010.6
20260506233003 13 47 0.0 3.2 0.00 0.03 0.00 88 1010.7
20260506232503 13 47 0.0 3.2 0.00 0.03 0.00 88 1010.8
20260506232003 13 47 0.0 3.2 0.00 0.03 0.00 88 1010.9
20260506231503 13 47 0.0 3.2 0.00 0.03 0.00 88 1010.8
20260506231003 13 47 0.0 3.2 0.00 0.03 0.00 88 1010.9
20260506230503 13 47 0.0 3.2 0.00 0.03 0.00 88 1010.6
20260506230003 13 47 0.0 3.2 0.00 0.03 0.00 88 1010.6
20260506225503 13 47 0.0 3.2 0.00 0.03 0.00 88 1010.6
20260506225003 13 47 0.0 3.2 0.00 0.03 0.00 88 1010.6
20260506224503 13 47 0.0 3.2 0.00 0.03 0.00 88 1010.6
20260506224003 13 47 0.0 3.2 0.00 0.03 0.00 88 1010.7
20260506223503 13 47 0.0 3.2 0.00 0.03 0.00 88 1010.6
20260506223003 13 47 0.0 3.2 0.00 0.03 0.00 88 1010.5
20260506222503 13 47 0.0 3.2 0.00 0.03 0.00 88 1010.4
20260506222003 13 47 0.0 3.2 0.00 0.03 0.00 88 1010.5
20260506221504 13 47 0.0 3.2 0.00 0.03 0.00 87 1010.5
20260506221003 13 47 0.0 3.2 0.00 0.03 0.00 87 1010.5
20260506220503 13 47 0.0 3.2 0.00 0.03 0.00 87 1010.6
20260506220003 14 47 0.0 3.2 0.00 0.03 0.00 87 1010.5
20260506215503 14 47 0.0 3.2 0.00 0.03 0.03 87 1010.6
20260506215003 14 47 0.0 3.2 0.00 0.03 0.03 87 1010.7
20260506214503 14 47 0.0 3.2 0.00 0.03 0.03 87 1010.5
20260506214003 14 47 0.0 3.2 0.00 0.03 0.03 87 1010.4
20260506213503 14 47 0.0 3.2 0.00 0.03 0.03 87 1010.4
20260506213003 14 47 0.0 3.2 0.00 0.03 0.03 87 1010.5
20260506212503 14 47 0.0 3.2 0.00 0.03 0.03 87 1010.5
20260506212003 14 47 0.0 3.2 0.00 0.03 0.03 87 1010.4
20260506211503 14 47 0.0 3.2 0.00 0.03 0.03 87 1010.6
20260506211003 14 47 0.0 3.2 0.00 0.03 0.03 87 1010.4
20260506210503 15 47 0.0 3.2 0.00 0.03 0.03 87 1010.3
20260506210003 15 47 0.0 3.2 0.00 0.03 0.03 87 1010.3
20260506205503 15 47 0.0 3.2 0.00 0.03 0.03 87 1010.4
20260506205003 15 47 0.0 3.2 0.00 0.03 0.03 87 1010.5
20260506204503 15 47 0.0 3.2 0.00 0.03 0.03 86 1010.0
20260506204003 15 47 0.0 3.2 0.00 0.03 0.03 86 1010.1
20260506203503 15 47 0.0 3.2 0.00 0.03 0.03 86 1010.1
20260506203003 15 47 0.0 3.2 0.00 0.03 0.03 86 1010.3
20260506202503 15 47 0.0 3.2 0.00 0.03 0.03 86 1010.2
20260506202003 15 47 0.0 3.2 0.00 0.03 0.03 86 1010.4
20260506201503 15 47 0.0 3.2 0.00 0.03 0.03 86 1010.1
20260506201003 15 47 0.0 3.2 0.00 0.03 0.03 86 1010.0
20260506200503 15 47 0.0 3.2 0.00 0.03 0.03 86 1010.0
20260506200003 15 47 0.0 3.2 0.00 0.03 0.03 85 1010.1
20260506195503 15 47 0.0 3.2 0.00 0.03 0.03 85 1010.2
20260506195003 15 47 0.0 3.2 0.00 0.03 0.03 85 1009.9
20260506194503 15 47 0.0 3.2 0.00 0.03 0.03 85 1009.9
20260506194003 15 47 0.0 3.2 0.00 0.03 0.03 85 1009.7
20260506193503 15 47 0.0 3.2 0.00 0.03 0.03 85 1009.4
20260506193003 15 47 0.0 3.2 0.00 0.03 0.03 85 1009.6
20260506192503 15 47 0.0 3.2 0.00 0.03 0.03 85 1009.5
20260506192003 16 47 0.0 3.2 0.00 0.03 0.03 85 1009.5
20260506191503 16 47 0.0 3.2 0.00 0.03 0.03 85 1009.5
20260506191003 16 47 0.0 3.2 0.00 0.03 0.03 85 1009.4
20260506190503 16 47 0.0 3.2 0.00 0.03 0.03 85 1009.3
20260506190004 16 47 0.0 3.2 0.00 0.03 0.03 85 1009.2
20260506185503 16 47 0.0 3.2 0.00 0.03 0.03 85 1009.3
20260506185003 16 47 0.0 3.2 0.00 0.03 0.03 84 1009.2
20260506184503 16 47 0.0 3.2 0.00 0.03 0.03 84 1009.2
20260506184003 16 47 0.0 3.2 0.00 0.03 0.03 84 1009.3
20260506183503 16 47 0.0 3.2 0.00 0.03 0.03 84 1009.1
20260506183003 16 47 0.0 3.2 0.00 0.03 0.03 84 1008.9
20260506182503 16 47 0.0 3.2 0.00 0.03 0.03 84 1008.9
20260506182003 16 47 0.0 3.2 0.00 0.03 0.03 84 1009.0
20260506181503 16 47 0.0 3.2 0.00 0.03 0.03 83 1008.7
20260506181003 16 47 0.0 3.2 0.00 0.03 0.03 83 1008.7
20260506180503 17 47 0.0 3.2 0.00 0.03 0.03 83 1008.6
20260506180004 17 47 0.0 3.2 0.00 0.03 0.03 83 1008.6
20260506175503 17 47 0.0 3.2 0.00 0.03 0.03 82 1008.5
20260506175003 17 47 0.0 3.2 0.00 0.03 0.03 82 1008.4
20260506174503 17 47 0.0 3.2 0.00 0.03 0.03 82 1008.4
20260506174003 17 47 0.0 3.2 0.00 0.03 0.03 82 1008.7
20260506173503 17 47 0.0 3.2 0.00 0.03 0.03 82 1008.8
20260506173003 17 47 0.0 3.2 0.00 0.03 0.03 82 1008.7
20260506172503 17 47 0.0 3.2 0.00 0.03 0.03 82 1008.8
20260506172003 17 47 0.0 3.2 0.00 0.03 0.03 82 1008.7
20260506171503 17 47 0.0 3.2 0.00 0.03 0.03 81 1008.5
20260506171003 17 47 0.0 3.2 0.00 0.03 0.03 81 1008.6
20260506170503 17 47 0.0 3.2 0.00 0.03 0.03 81 1008.3
20260506170003 17 47 0.0 3.2 0.00 0.03 0.03 81 1008.1
20260506165503 17 47 0.0 3.2 0.00 0.03 0.03 80 1008.5
20260506165003 17 47 0.0 3.2 0.00 0.03 0.03 80 1008.2
20260506164503 17 47 0.0 3.2 0.00 0.03 0.03 80 1008.4
20260506164003 17 47 0.0 3.2 0.00 0.03 0.03 80 1008.2
20260506163503 17 47 0.0 3.2 0.00 0.03 0.03 80 1008.4
20260506163003 17 47 0.0 3.2 0.00 0.03 0.03 80 1008.6
20260506162503 17 47 0.0 3.2 0.00 0.03 0.03 80 1008.5
20260506162003 17 47 0.0 3.2 0.00 0.03 0.03 79 1008.4
20260506161503 17 47 0.0 3.2 0.00 0.03 0.03 79 1008.6
20260506161003 18 47 0.0 3.2 0.00 0.03 0.03 78 1008.8
20260506160503 18 47 0.0 3.2 0.00 0.03 0.03 78 1008.7
20260506160003 18 75 1.6 12.9 0.00 0.03 0.03 77 1008.8
20260506155503 18 91 4.8 12.9 0.00 0.03 0.03 78 1008.4
20260506155003 18 102 6.4 14.5 0.00 0.03 0.03 77 1008.9
20260506154503 18 109 6.4 14.5 0.00 0.03 0.03 80 1008.6
20260506154003 18 109 6.4 11.3 0.00 0.03 0.03 81 1008.5
20260506153503 18 107 8.0 11.3 0.00 0.03 0.03 82 1008.8
20260506153003 18 106 8.0 9.7 0.00 0.03 0.03 82 1008.5
20260506152503 18 106 8.0 9.7 0.00 0.03 0.03 82 1008.6
20260506152003 18 106 8.0 9.7 0.00 0.03 0.03 82 1008.5
20260506151503 18 106 8.0 9.7 0.00 0.03 0.03 82 1008.6
20260506151003 17 104 8.0 12.9 0.00 0.03 0.03 82 1008.6
20260506150503 17 84 6.4 14.5 0.00 0.03 0.03 81 1008.5
20260506150003 17 55 6.4 14.5 0.00 0.03 0.03 81 1008.8
20260506145503 17 45 6.4 14.5 0.00 0.03 0.03 81 1008.8
20260506145003 17 46 6.4 11.3 0.00 0.03 0.03 82 1008.7
20260506144503 17 28 6.4 11.3 0.00 0.03 0.03 84 1008.7
20260506144003 17 3 8.0 8.0 0.00 0.03 0.03 84 1009.0
20260506143503 17 18 6.4 12.9 0.00 0.03 0.03 84 1009.0
20260506143003 17 37 6.4 12.9 0.00 0.03 0.03 84 1008.7
20260506142503 17 46 6.4 12.9 0.00 0.03 0.03 85 1009.0
20260506142003 17 42 6.4 14.5 0.00 0.03 0.03 85 1008.8
20260506141503 17 43 4.8 14.5 0.00 0.03 0.03 86 1008.9
20260506141003 17 52 4.8 9.7 0.00 0.03 0.03 86 1008.9
20260506140503 17 40 6.4 11.3 0.00 0.03 0.03 86 1008.9
20260506140003 17 37 6.4 11.3 0.00 0.03 0.03 87 1009.0
20260506135503 17 66 4.8 11.3 0.00 0.03 0.03 87 1009.0
20260506135003 17 82 4.8 11.3 0.00 0.03 0.03 87 1008.9
20260506134503 16 83 4.8 11.3 0.00 0.03 0.03 87 1009.1
20260506134003 16 83 4.8 11.3 0.00 0.03 0.03 87 1009.1
20260506133503 16 83 4.8 11.3 0.00 0.03 0.03 87 1009.2
20260506133003 16 83 4.8 11.3 0.00 0.03 0.03 87 1009.0
20260506132503 16 83 4.8 11.3 0.00 0.03 0.03 87 1009.1
20260506132003 16 83 4.8 11.3 0.00 0.03 0.03 87 1009.5
20260506131503 16 83 4.8 11.3 0.00 0.03 0.03 87 1009.1
20260506131003 16 83 4.8 11.3 0.00 0.03 0.03 87 1009.4
20260506130503 16 83 4.8 11.3 0.00 0.03 0.03 87 1009.3
20260506130003 16 83 4.8 11.3 0.00 0.03 0.03 86 1009.1
20260506125503 16 83 4.8 11.3 0.00 0.03 0.03 85 1009.2
20260506125003 16 83 4.8 11.3 0.00 0.03 0.03 84 1009.3
20260506124503 16 83 4.8 11.3 0.00 0.03 0.03 84 1009.4
20260506124003 16 83 4.8 11.3 0.00 0.03 0.03 83 1009.7
20260506123503 17 83 4.8 11.3 0.00 0.03 0.03 82 1009.7
20260506123003 17 83 4.8 11.3 0.00 0.03 0.03 81 1009.1
20260506122503 17 83 4.8 11.3 0.00 0.03 0.03 80 1009.4
20260506122003 17 83 4.8 11.3 0.00 0.03 0.03 80 1009.2
20260506121503 17 83 4.8 11.3 0.00 0.03 0.03 81 1009.4
20260506121003 17 83 4.8 11.3 0.00 0.03 0.03 81 1009.3
20260506120503 17 83 4.8 11.3 0.00 0.03 0.03 82 1009.1
20260506120003 17 83 4.8 11.3 0.00 0.03 0.03 82 1009.4
20260506115503 17 83 4.8 11.3 0.00 0.03 0.03 83 1009.4
20260506115003 17 83 4.8 11.3 0.00 0.03 0.03 83 1009.7
20260506114503 17 83 4.8 11.3 0.00 0.03 0.03 82 1009.7
20260506114003 17 83 4.8 11.3 0.00 0.03 0.03 82 1009.7
20260506113503 17 83 4.8 11.3 0.00 0.03 0.03 81 1009.7
20260506113003 17 79 4.8 12.9 0.00 0.03 0.03 81 1009.6
20260506112503 17 74 6.4 16.1 0.00 0.03 0.03 82 1010.0
20260506112003 17 60 6.4 16.1 0.00 0.03 0.03 82 1009.7
20260506111503 17 50 6.4 12.9 0.00 0.03 0.03 81 1009.7
20260506111003 17 57 6.4 16.1 0.00 0.03 0.03 81 1009.9
20260506110503 17 61 6.4 16.1 0.00 0.03 0.03 82 1010.1
20260506110003 17 55 8.0 14.5 0.00 0.03 0.03 83 1010.1
20260506105503 17 57 6.4 14.5 0.00 0.03 0.03 83 1010.2
20260506105003 17 78 6.4 14.5 0.00 0.03 0.03 83 1010.2
20260506104503 17 94 8.0 16.1 0.00 0.03 0.03 83 1010.4
20260506104003 16 98 8.0 16.1 0.00 0.03 0.03 84 1010.3
20260506103503 16 100 8.0 14.5 0.00 0.03 0.03 84 1010.4
20260506103003 16 99 8.0 9.7 0.00 0.03 0.03 83 1010.3
20260506102503 16 99 8.0 9.7 0.00 0.03 0.03 83 1010.3
20260506102003 16 99 8.0 9.7 0.00 0.03 0.03 83 1010.2
20260506101503 16 99 8.0 9.7 0.00 0.03 0.03 83 1010.5
20260506101003 16 97 8.0 9.7 0.00 0.03 0.03 82 1010.5
20260506100503 16 96 6.4 11.3 0.00 0.03 0.03 82 1010.6
20260506100003 16 99 6.4 14.5 0.00 0.03 0.03 83 1010.6
20260506095503 16 112 6.4 14.5 0.00 0.03 0.03 84 1010.6
20260506095003 16 121 6.4 11.3 0.00 0.03 0.03 85 1010.7
20260506094503 16 119 6.4 14.5 0.00 0.03 0.03 86 1010.5
20260506094003 16 112 8.0 14.5 0.00 0.03 0.03 86 1010.4
20260506093503 16 110 8.0 16.1 0.00 0.03 0.03 86 1010.5
20260506093003 16 109 4.8 16.1 0.00 0.03 0.03 86 1010.5
20260506092503 16 102 3.2 3.2 0.00 0.03 0.03 85 1010.6
20260506092003 16 102 3.2 3.2 0.00 0.03 0.03 85 1011.0
20260506091503 16 102 3.2 3.2 0.00 0.03 0.03 85 1010.6
20260506091003 16 102 3.2 3.2 0.00 0.05 0.03 84 1010.7
20260506090503 16 102 3.2 3.2 0.00 0.05 0.03 84 1010.7
20260506090003 16 102 3.2 3.2 0.00 0.05 0.03 84 1010.7
20260506085503 16 102 3.2 3.2 0.00 0.05 0.03 84 1010.7
20260506085003 16 102 3.2 3.2 0.00 0.05 0.03 83 1010.7
20260506084503 16 102 3.2 3.2 0.00 0.05 0.03 83 1010.2
20260506084003 16 116 3.2 9.7 0.00 0.05 0.03 84 1010.4
20260506083503 16 108 3.2 9.7 0.00 0.05 0.03 84 1010.5
20260506083003 16 63 3.2 8.0 0.00 0.05 0.03 85 1010.4
20260506082503 16 53 3.2 9.7 0.00 0.05 0.03 85 1010.1
20260506082003 16 66 1.6 9.7 0.00 0.05 0.03 86 1010.2
20260506081503 16 95 0.0 4.8 0.00 0.05 0.03 86 1010.2
20260506081003 16 100 1.6 8.0 0.00 0.05 0.03 87 1010.2
20260506080503 15 118 3.2 9.7 0.00 0.05 0.03 87 1010.2